createdAt,value
2017-10-04T00:00:10.816Z,1006.17
2017-10-04T00:01:21.148Z,1006.2
2017-10-04T00:02:31.207Z,1006.18
2017-10-04T00:03:41.535Z,1006.15
2017-10-04T00:04:51.923Z,1006.19
2017-10-04T00:06:02.269Z,1006.15
2017-10-04T00:07:12.622Z,1006.17
2017-10-04T00:08:22.643Z,1006.1
2017-10-04T00:09:32.978Z,1006.23
2017-10-04T00:10:43.009Z,1006.18
2017-10-04T00:11:53.905Z,1006.21
2017-10-04T00:13:03.933Z,1006.25
2017-10-04T00:14:13.954Z,1006.24
2017-10-04T00:15:24.287Z,1006.29
2017-10-04T00:16:34.613Z,1006.25
2017-10-04T00:17:44.947Z,1006.24
2017-10-04T00:18:55.272Z,1006.28
2017-10-04T00:20:04.978Z,1006.23
2017-10-04T00:21:15.307Z,1006.28
2017-10-04T00:22:25.697Z,1006.23
2017-10-04T00:23:36.044Z,1006.19
2017-10-04T00:24:46.071Z,1006.2
2017-10-04T00:25:56.414Z,1006.26
2017-10-04T00:27:06.764Z,1006.23
2017-10-04T00:28:16.834Z,1006.27
2017-10-04T00:29:26.854Z,1006.28
2017-10-04T00:30:36.884Z,1006.33
2017-10-04T00:31:47.221Z,1006.33
2017-10-04T00:32:57.567Z,1006.32
2017-10-04T00:34:07.915Z,1006.33
2017-10-04T00:35:18.262Z,1006.37
2017-10-04T00:36:28.275Z,1006.35
2017-10-04T00:37:38.610Z,1006.33
2017-10-04T00:38:48.947Z,1006.31
2017-10-04T00:39:59.335Z,1006.32
2017-10-04T00:41:09.351Z,1006.32
2017-10-04T00:42:19.692Z,1006.34
2017-10-04T00:43:29.715Z,1006.32
2017-10-04T00:44:39.732Z,1006.31
2017-10-04T00:45:50.082Z,1006.31
2017-10-04T00:47:00.411Z,1006.28
2017-10-04T00:48:10.741Z,1006.25
2017-10-04T00:49:20.767Z,1006.28
2017-10-04T00:50:31.090Z,1006.24
2017-10-04T00:51:41.485Z,1006.27
2017-10-04T00:52:51.818Z,1006.27
2017-10-04T00:54:01.829Z,1006.23
2017-10-04T00:55:11.848Z,1006.25
2017-10-04T00:56:21.538Z,1006.28
2017-10-04T00:57:31.618Z,1006.3
2017-10-04T00:58:42.054Z,1006.33
2017-10-04T00:59:52.408Z,1006.35
2017-10-04T01:01:02.760Z,1006.35
2017-10-04T01:02:12.787Z,1006.3
2017-10-04T01:03:22.818Z,1006.39
2017-10-04T01:04:33.148Z,1006.36
2017-10-04T01:05:42.858Z,1006.39
2017-10-04T01:06:53.202Z,1006.34
2017-10-04T01:08:03.223Z,1006.35
2017-10-04T01:09:13.612Z,1006.35
2017-10-04T01:10:23.954Z,1006.35
2017-10-04T01:11:34.292Z,1006.34
2017-10-04T01:12:44.632Z,1006.35
2017-10-04T01:13:54.976Z,1006.38
2017-10-04T01:15:05.306Z,1006.34
2017-10-04T01:16:15.647Z,1006.32
2017-10-04T01:17:25.995Z,1006.38
2017-10-04T01:18:36.331Z,1006.38
2017-10-04T01:19:46.660Z,1006.4
2017-10-04T01:20:57.047Z,1006.4
2017-10-04T01:22:07.383Z,1006.38
2017-10-04T01:23:17.753Z,1006.43
2017-10-04T01:24:28.097Z,1006.36
2017-10-04T01:25:38.419Z,1006.43
2017-10-04T01:26:48.439Z,1006.44
2017-10-04T01:27:58.777Z,1006.45
2017-10-04T01:29:09.123Z,1006.44
2017-10-04T01:30:19.154Z,1006.43
2017-10-04T01:31:29.165Z,1006.43
2017-10-04T01:32:39.522Z,1006.41
2017-10-04T01:33:49.869Z,1006.4
2017-10-04T01:34:59.899Z,1006.47
2017-10-04T01:36:10.254Z,1006.46
2017-10-04T01:37:20.609Z,1006.51
2017-10-04T01:38:30.617Z,1006.47
2017-10-04T01:39:40.650Z,1006.45
2017-10-04T01:40:50.985Z,1006.43
2017-10-04T01:42:01.332Z,1006.45
2017-10-04T01:43:11.663Z,1006.45
2017-10-04T01:44:21.736Z,1006.48
2017-10-04T01:45:31.778Z,1006.49
2017-10-04T01:46:42.177Z,1006.49
2017-10-04T01:47:52.522Z,1006.5
2017-10-04T01:49:02.868Z,1006.55
2017-10-04T01:50:12.611Z,1006.56
2017-10-04T01:51:22.960Z,1006.56
2017-10-04T01:52:33.294Z,1006.59
2017-10-04T01:53:43.314Z,1006.6
2017-10-04T01:54:53.661Z,1006.57
2017-10-04T01:56:03.999Z,1006.58
2017-10-04T01:57:14.334Z,1006.59
2017-10-04T01:58:24.354Z,1006.62
2017-10-04T01:59:34.680Z,1006.6
2017-10-04T02:00:45.020Z,1006.63
2017-10-04T02:01:55.348Z,1006.63
2017-10-04T02:03:05.373Z,1006.63
2017-10-04T02:04:15.712Z,1006.63
2017-10-04T02:05:25.751Z,1006.63
2017-10-04T02:06:36.086Z,1006.62
2017-10-04T02:07:46.415Z,1006.64
2017-10-04T02:08:56.752Z,1006.65
2017-10-04T02:10:07.216Z,1006.61
2017-10-04T02:11:17.556Z,1006.64
2017-10-04T02:12:27.587Z,1006.67
2017-10-04T02:13:37.939Z,1006.64
2017-10-04T02:14:48.377Z,1006.59
2017-10-04T02:15:58.720Z,1006.6
2017-10-04T02:17:09.075Z,1006.62
2017-10-04T02:18:19.430Z,1006.61
2017-10-04T02:19:29.755Z,1006.63
2017-10-04T02:20:40.092Z,1006.63
2017-10-04T02:21:50.122Z,1006.69
2017-10-04T02:23:00.460Z,1006.69
2017-10-04T02:24:10.791Z,1006.7
2017-10-04T02:25:20.807Z,1006.7
2017-10-04T02:26:30.825Z,1006.69
2017-10-04T02:27:41.175Z,1006.71
2017-10-04T02:28:51.504Z,1006.71
2017-10-04T02:30:01.850Z,1006.68
2017-10-04T02:31:11.872Z,1006.68
2017-10-04T02:32:21.948Z,1006.66
2017-10-04T02:33:32.279Z,1006.64
2017-10-04T02:34:42.316Z,1006.68
2017-10-04T02:35:52.654Z,1006.66
2017-10-04T02:37:02.985Z,1006.7
2017-10-04T02:38:13.346Z,1006.67
2017-10-04T02:39:24.986Z,1006.66
2017-10-04T02:40:54.366Z,1006.66
2017-10-04T02:42:05.517Z,1006.67
2017-10-04T02:43:15.272Z,1006.68
2017-10-04T02:44:25.611Z,1006.64
2017-10-04T02:45:35.633Z,1006.62
2017-10-04T02:46:45.345Z,1006.64
2017-10-04T02:47:55.676Z,1006.59
2017-10-04T02:49:07.115Z,1006.6
2017-10-04T02:50:17.456Z,1006.59
2017-10-04T02:51:27.779Z,1006.63
2017-10-04T02:52:38.105Z,1006.65
2017-10-04T02:53:48.450Z,1006.72
2017-10-04T02:54:58.842Z,1006.72
2017-10-04T02:56:08.860Z,1006.78
2017-10-04T02:57:19.184Z,1006.77
2017-10-04T02:58:29.233Z,1006.78
2017-10-04T02:59:39.564Z,1006.75
2017-10-04T03:00:49.901Z,1006.78
2017-10-04T03:02:00.230Z,1006.82
2017-10-04T03:33:36.152Z,1006.85
2017-10-04T03:34:46.482Z,1006.82
2017-10-04T03:35:56.803Z,1006.85
2017-10-04T03:37:06.805Z,1006.83
2017-10-04T03:38:16.815Z,1006.84
2017-10-04T03:39:26.883Z,1006.87
2017-10-04T03:40:37.205Z,1006.81
2017-10-04T03:41:47.213Z,1006.85
2017-10-04T03:42:57.550Z,1006.81
2017-10-04T03:44:07.871Z,1006.85
2017-10-04T03:45:17.559Z,1006.86
2017-10-04T03:46:27.899Z,1006.84
2017-10-04T03:47:38.236Z,1006.86
2017-10-04T03:48:48.585Z,1006.88
2017-10-04T03:49:58.597Z,1006.84
2017-10-04T03:51:08.932Z,1006.84
2017-10-04T03:52:19.260Z,1006.77
2017-10-04T03:53:29.596Z,1006.79
2017-10-04T03:54:39.610Z,1006.79
2017-10-04T03:55:49.304Z,1006.85
2017-10-04T03:56:59.694Z,1006.87
2017-10-04T03:58:09.703Z,1006.88
2017-10-04T03:59:20.265Z,1006.91
2017-10-04T04:00:30.612Z,1006.92
2017-10-04T04:01:40.937Z,1006.87
2017-10-04T04:02:51.329Z,1006.89
2017-10-04T04:04:01.684Z,1006.9
2017-10-04T04:05:12.040Z,1006.91
2017-10-04T04:06:22.364Z,1006.93
2017-10-04T04:07:32.686Z,1006.88
2017-10-04T04:08:43.073Z,1006.87
2017-10-04T04:09:53.091Z,1006.84
2017-10-04T04:11:03.418Z,1006.87
2017-10-04T04:12:13.119Z,1006.86
2017-10-04T04:13:23.460Z,1006.88
2017-10-04T04:14:33.482Z,1006.94
2017-10-04T04:15:43.821Z,1006.94
2017-10-04T04:16:53.835Z,1006.97
2017-10-04T04:18:03.861Z,1006.96
2017-10-04T04:19:14.202Z,1007
2017-10-04T04:20:24.230Z,1006.97
2017-10-04T04:21:34.565Z,1007
2017-10-04T04:22:44.906Z,1007.03
2017-10-04T04:23:54.926Z,1007.02
2017-10-04T04:25:05.283Z,1007.02
2017-10-04T04:26:15.674Z,1007
2017-10-04T04:27:25.712Z,1007
2017-10-04T04:28:36.041Z,1007
2017-10-04T04:29:46.373Z,1007.03
2017-10-04T04:30:56.717Z,1007.03
2017-10-04T04:32:07.044Z,1007.02
2017-10-04T04:33:17.076Z,1007.04
2017-10-04T04:34:27.406Z,1007.07
2017-10-04T04:35:37.764Z,1007.06
2017-10-04T04:36:47.770Z,1007.05
2017-10-04T04:37:58.093Z,1007.1
2017-10-04T04:39:07.790Z,1007.08
2017-10-04T04:40:18.132Z,1007.1
2017-10-04T04:41:28.538Z,1007.09
2017-10-04T04:42:38.548Z,1007.07
2017-10-04T04:43:48.966Z,1007.09
2017-10-04T04:44:59.314Z,1007.16
2017-10-04T04:46:09.644Z,1007.15
2017-10-04T04:47:19.662Z,1007.13
2017-10-04T04:48:29.994Z,1007.15
2017-10-04T04:49:40.071Z,1007.15
2017-10-04T04:50:50.404Z,1007.15
2017-10-04T04:52:01.041Z,1007.14
2017-10-04T04:53:11.375Z,1007.11
2017-10-04T04:54:21.722Z,1007.05
2017-10-04T04:55:31.792Z,1007.05
2017-10-04T04:56:42.115Z,1007.09
2017-10-04T04:57:52.140Z,1007.06
2017-10-04T04:59:02.468Z,1007.06
2017-10-04T05:00:12.782Z,1007.03
2017-10-04T05:01:22.847Z,1007.03
2017-10-04T05:02:33.421Z,1007.03
2017-10-04T05:03:43.758Z,1007.01
2017-10-04T05:04:54.077Z,1007
2017-10-04T05:06:04.460Z,1006.97
2017-10-04T05:07:14.791Z,1006.95
2017-10-04T05:08:25.474Z,1006.94
2017-10-04T05:09:35.794Z,1006.94
2017-10-04T05:10:46.143Z,1006.97
2017-10-04T05:11:56.483Z,1006.93
2017-10-04T05:13:06.531Z,1006.93
2017-10-04T05:14:16.869Z,1006.93
2017-10-04T05:15:27.210Z,1006.93
2017-10-04T05:16:37.529Z,1006.95
2017-10-04T05:17:47.564Z,1006.99
2017-10-04T05:18:57.308Z,1007.05
2017-10-04T05:20:07.340Z,1007.06
2017-10-04T05:21:17.365Z,1007.11
2017-10-04T05:22:27.701Z,1007.06
2017-10-04T05:23:38.040Z,1007.04
2017-10-04T05:24:48.367Z,1006.95
2017-10-04T05:25:58.714Z,1006.95
2017-10-04T05:27:08.731Z,1006.94
2017-10-04T05:28:18.739Z,1006.94
2017-10-04T05:29:29.075Z,1006.97
2017-10-04T05:30:39.694Z,1006.94
2017-10-04T05:31:49.733Z,1006.98
2017-10-04T05:33:00.086Z,1006.98
2017-10-04T05:34:10.113Z,1007.02
2017-10-04T05:35:20.141Z,1007.03
2017-10-04T05:36:30.482Z,1007.07
2017-10-04T05:37:40.822Z,1007.07
2017-10-04T05:38:50.848Z,1007.07
2017-10-04T05:40:00.857Z,1007.12
2017-10-04T05:41:10.558Z,1007.1
2017-10-04T05:42:20.584Z,1007.16
2017-10-04T05:43:30.602Z,1007.14
2017-10-04T05:44:40.627Z,1007.15
2017-10-04T05:45:50.668Z,1007.24
2017-10-04T05:47:00.996Z,1007.23
2017-10-04T05:48:11.013Z,1007.19
2017-10-04T05:49:21.368Z,1007.24
2017-10-04T05:50:31.401Z,1007.25
2017-10-04T05:51:41.738Z,1007.21
2017-10-04T05:52:52.072Z,1007.25
2017-10-04T05:54:02.094Z,1007.21
2017-10-04T05:55:12.437Z,1007.25
2017-10-04T05:56:22.761Z,1007.27
2017-10-04T05:57:32.823Z,1007.24
2017-10-04T05:58:43.153Z,1007.19
2017-10-04T05:59:53.482Z,1007.24
2017-10-04T06:01:03.500Z,1007.3
2017-10-04T06:02:13.840Z,1007.28
2017-10-04T06:03:24.224Z,1007.28
2017-10-04T06:04:33.936Z,1007.28
2017-10-04T06:05:44.285Z,1007.22
2017-10-04T06:06:54.610Z,1007.23
2017-10-04T06:08:04.648Z,1007.23
2017-10-04T06:09:14.729Z,1007.2
2017-10-04T06:10:25.064Z,1007.18
2017-10-04T06:11:35.399Z,1007.21
2017-10-04T06:12:45.416Z,1007.25
2017-10-04T06:13:55.742Z,1007.24
2017-10-04T06:15:06.140Z,1007.25
2017-10-04T06:16:16.465Z,1007.25
2017-10-04T06:17:26.807Z,1007.26
2017-10-04T06:18:36.826Z,1007.29
2017-10-04T06:19:46.562Z,1007.33
2017-10-04T06:20:56.917Z,1007.37
2017-10-04T06:22:06.629Z,1007.39
2017-10-04T06:23:16.969Z,1007.44
2017-10-04T06:24:27.327Z,1007.5
2017-10-04T06:25:37.664Z,1007.51
2017-10-04T06:26:48.060Z,1007.5
2017-10-04T06:27:58.397Z,1007.55
2017-10-04T06:29:08.750Z,1007.57
2017-10-04T06:30:18.468Z,1007.62
2017-10-04T06:31:28.488Z,1007.64
2017-10-04T06:32:38.875Z,1007.67
2017-10-04T06:33:48.891Z,1007.62
2017-10-04T06:34:58.918Z,1007.59
2017-10-04T06:36:09.271Z,1007.62
2017-10-04T06:37:19.616Z,1007.65
2017-10-04T06:38:30.006Z,1007.59
2017-10-04T06:39:40.355Z,1007.65
2017-10-04T06:40:50.698Z,1007.64
2017-10-04T06:42:01.050Z,1007.67
2017-10-04T06:43:11.389Z,1007.67
2017-10-04T06:44:21.728Z,1007.69
2017-10-04T06:45:31.732Z,1007.75
2017-10-04T06:46:42.071Z,1007.74
2017-10-04T06:47:52.418Z,1007.76
2017-10-04T06:49:02.496Z,1007.77
2017-10-04T06:50:12.558Z,1007.73
2017-10-04T06:51:22.577Z,1007.79
2017-10-04T06:52:32.601Z,1007.79
2017-10-04T06:53:42.946Z,1007.77
2017-10-04T06:54:53.306Z,1007.74
2017-10-04T06:56:03.689Z,1007.72
2017-10-04T06:57:14.041Z,1007.67
2017-10-04T06:58:24.375Z,1007.57
2017-10-04T06:59:34.396Z,1007.55
2017-10-04T07:00:44.722Z,1007.49
2017-10-04T07:01:55.059Z,1007.41
2017-10-04T07:03:04.765Z,1007.38
2017-10-04T07:04:15.103Z,1007.38
2017-10-04T07:05:25.454Z,1007.37
2017-10-04T07:06:35.798Z,1007.39
2017-10-04T07:07:46.190Z,1007.29
2017-10-04T07:08:56.525Z,1007.3
2017-10-04T07:10:06.864Z,1007.33
2017-10-04T07:11:17.209Z,1007.28
2017-10-04T07:12:27.548Z,1007.33
2017-10-04T07:13:37.949Z,1007.34
2017-10-04T07:14:48.316Z,1007.26
2017-10-04T07:15:58.669Z,1007.3
2017-10-04T07:17:08.702Z,1007.31
2017-10-04T07:18:19.487Z,1007.28
2017-10-04T07:19:29.579Z,1007.29
2017-10-04T07:20:39.921Z,1007.32
2017-10-04T07:21:50.280Z,1007.28
2017-10-04T07:23:00.643Z,1007.36
2017-10-04T07:24:10.977Z,1007.35
2017-10-04T07:25:21.380Z,1007.39
2017-10-04T07:26:31.401Z,1007.41
2017-10-04T07:27:41.748Z,1007.39
2017-10-04T07:28:51.771Z,1007.34
2017-10-04T07:30:02.103Z,1007.33
2017-10-04T07:31:12.468Z,1007.34
2017-10-04T07:32:22.812Z,1007.32
2017-10-04T07:33:32.851Z,1007.27
2017-10-04T07:34:42.869Z,1007.22
2017-10-04T07:35:53.222Z,1007.2
2017-10-04T07:37:03.579Z,1007.21
2017-10-04T07:38:13.934Z,1007.2
2017-10-04T07:39:24.298Z,1007.26
2017-10-04T07:40:34.648Z,1007.21
2017-10-04T07:41:45.009Z,1007.28
2017-10-04T07:42:55.091Z,1007.23
2017-10-04T07:44:04.479Z,1007.21
2017-10-04T07:45:14.839Z,1007.24
2017-10-04T07:46:25.173Z,1007.28
2017-10-04T07:47:35.530Z,1007.29
2017-10-04T07:48:45.594Z,1007.29
2017-10-04T07:49:55.302Z,1007.26
2017-10-04T07:51:05.652Z,1007.27
2017-10-04T07:52:15.971Z,1007.25
2017-10-04T07:53:27.458Z,1007.24
2017-10-04T07:54:37.509Z,1007.26
2017-10-04T07:55:47.530Z,1007.27
2017-10-04T07:56:57.886Z,1007.23
2017-10-04T07:58:08.229Z,1007.25
2017-10-04T07:59:18.561Z,1007.22
2017-10-04T08:00:28.627Z,1007.22
2017-10-04T08:01:38.642Z,1007.22
2017-10-04T08:02:48.657Z,1007.22
2017-10-04T08:03:58.692Z,1007.26
2017-10-04T08:05:08.715Z,1007.24
2017-10-04T08:06:19.077Z,1007.3
2017-10-04T08:07:29.097Z,1007.25
2017-10-04T08:08:39.102Z,1007.25
2017-10-04T08:09:49.110Z,1007.3
2017-10-04T08:10:59.455Z,1007.26
2017-10-04T08:12:09.838Z,1007.23
2017-10-04T08:13:20.171Z,1007.25
2017-10-04T08:14:30.526Z,1007.23
2017-10-04T08:15:40.875Z,1007.19
2017-10-04T08:16:51.213Z,1007.16
2017-10-04T08:18:01.236Z,1007.11
2017-10-04T08:19:11.595Z,1007.1
2017-10-04T08:20:20.971Z,1007.11
2017-10-04T08:21:31.000Z,1007.08
2017-10-04T08:22:41.355Z,1007.1
2017-10-04T08:23:51.761Z,1007.11
2017-10-04T08:25:02.135Z,1007.1
2017-10-04T08:26:12.488Z,1007.15
2017-10-04T08:27:22.839Z,1007.12
2017-10-04T08:28:32.861Z,1007.18
2017-10-04T08:29:42.882Z,1007.16
2017-10-04T08:30:52.912Z,1007.27
2017-10-04T08:32:03.249Z,1007.27
2017-10-04T08:33:13.592Z,1007.26
2017-10-04T08:34:23.620Z,1007.24
2017-10-04T08:35:34.008Z,1007.23
2017-10-04T08:36:44.343Z,1007.25
2017-10-04T08:37:54.683Z,1007.21
2017-10-04T08:39:05.071Z,1007.21
2017-10-04T08:40:15.423Z,1007.18
2017-10-04T08:41:25.473Z,1007.17
2017-10-04T08:42:35.816Z,1007.23
2017-10-04T08:43:45.842Z,1007.17
2017-10-04T08:44:55.874Z,1007.05
2017-10-04T08:46:05.910Z,1007.06
2017-10-04T08:47:16.001Z,1007.07
2017-10-04T08:48:26.059Z,1007.03
2017-10-04T08:49:36.393Z,1006.98
2017-10-04T08:50:46.748Z,1007
2017-10-04T08:51:56.764Z,1007
2017-10-04T08:53:07.153Z,1006.96
2017-10-04T08:54:17.182Z,1006.94
2017-10-04T08:55:27.538Z,1006.92
2017-10-04T08:56:37.884Z,1006.91
2017-10-04T08:57:48.225Z,1006.92
2017-10-04T08:58:58.631Z,1006.92
2017-10-04T09:00:09.203Z,1006.96
2017-10-04T09:01:19.548Z,1006.95
2017-10-04T09:02:29.917Z,1006.99
2017-10-04T09:03:41.649Z,1007
2017-10-04T09:04:52.053Z,1006.95
2017-10-04T09:06:02.402Z,1006.98
2017-10-04T09:07:13.202Z,1006.98
2017-10-04T09:08:22.920Z,1007
2017-10-04T09:09:33.290Z,1007.01
2017-10-04T09:10:43.389Z,1007.02
2017-10-04T09:11:53.750Z,1007
2017-10-04T09:13:03.773Z,1007.07
2017-10-04T09:14:14.110Z,1007.03
2017-10-04T09:15:25.230Z,1007.06
2017-10-04T09:16:35.598Z,1007.03
2017-10-04T09:17:45.763Z,1007.06
2017-10-04T09:18:56.145Z,1007.07
2017-10-04T09:20:06.480Z,1007.06
2017-10-04T09:21:16.523Z,1007.09
2017-10-04T09:22:26.954Z,1007.07
2017-10-04T09:23:37.347Z,1007.08
2017-10-04T09:24:47.686Z,1007.06
2017-10-04T09:25:58.050Z,1007.01
2017-10-04T09:27:07.770Z,1007.03
2017-10-04T09:28:18.166Z,1006.97
2017-10-04T09:29:28.505Z,1007
2017-10-04T09:30:38.527Z,1007.02
2017-10-04T09:31:48.538Z,1007
2017-10-04T09:32:58.886Z,1006.96
2017-10-04T09:34:08.923Z,1006.96
2017-10-04T09:35:19.280Z,1006.93
2017-10-04T09:36:29.614Z,1006.88
2017-10-04T09:37:39.964Z,1006.84
2017-10-04T09:38:50.001Z,1006.85
2017-10-04T09:40:00.347Z,1006.78
2017-10-04T09:41:10.693Z,1006.77
2017-10-04T09:42:21.053Z,1006.73
2017-10-04T09:43:31.074Z,1006.7
2017-10-04T09:44:41.395Z,1006.69
2017-10-04T09:45:51.421Z,1006.67
2017-10-04T09:47:01.458Z,1006.68
2017-10-04T09:48:11.476Z,1006.64
2017-10-04T09:49:21.518Z,1006.62
2017-10-04T09:50:31.878Z,1006.64
2017-10-04T09:51:42.229Z,1006.62
2017-10-04T09:52:52.252Z,1006.61
2017-10-04T09:54:02.596Z,1006.62
2017-10-04T09:55:12.937Z,1006.59
2017-10-04T09:56:23.292Z,1006.52
2017-10-04T09:57:33.371Z,1006.58
2017-10-04T09:58:43.406Z,1006.63
2017-10-04T09:59:53.432Z,1006.64
2017-10-04T10:01:03.460Z,1006.62
2017-10-04T10:02:13.800Z,1006.59
2017-10-04T10:03:23.814Z,1006.57
2017-10-04T10:04:34.156Z,1006.54
2017-10-04T10:05:44.177Z,1006.54
2017-10-04T10:06:54.519Z,1006.54
2017-10-04T10:08:04.874Z,1006.57
2017-10-04T10:09:14.966Z,1006.6
2017-10-04T10:10:24.908Z,1006.54
2017-10-04T10:11:35.259Z,1006.59
2017-10-04T10:12:45.948Z,1006.53
2017-10-04T10:13:56.708Z,1006.54
2017-10-04T10:15:06.936Z,1006.41
2017-10-04T10:16:17.279Z,1006.35
2017-10-04T10:17:27.623Z,1006.35
2017-10-04T10:18:39.508Z,1006.36
2017-10-04T10:19:49.538Z,1006.36
2017-10-04T10:20:59.879Z,1006.33
2017-10-04T10:22:10.227Z,1006.33
2017-10-04T10:23:20.253Z,1006.24
2017-10-04T10:24:30.598Z,1006.29
2017-10-04T10:25:40.957Z,1006.31
2017-10-04T10:26:50.713Z,1006.33
2017-10-04T10:28:01.062Z,1006.27
2017-10-04T10:29:11.409Z,1006.23
2017-10-04T10:30:21.454Z,1006.15
2017-10-04T10:31:31.790Z,1006.1
2017-10-04T10:32:42.132Z,1006.11
2017-10-04T10:33:52.471Z,1006.08
2017-10-04T10:35:02.806Z,1006.01
2017-10-04T10:36:13.137Z,1006.02
2017-10-04T10:37:22.854Z,1005.98
2017-10-04T10:38:33.270Z,1005.94
2017-10-04T10:39:43.626Z,1005.96
2017-10-04T10:40:53.991Z,1005.9
2017-10-04T10:42:04.024Z,1005.93
2017-10-04T10:43:14.383Z,1005.9
2017-10-04T10:44:24.723Z,1005.85
2017-10-04T10:45:34.785Z,1005.86
2017-10-04T10:46:45.144Z,1005.86
2017-10-04T10:47:55.480Z,1005.81
2017-10-04T10:49:05.679Z,1005.85
2017-10-04T10:50:16.076Z,1005.79
2017-10-04T10:51:26.418Z,1005.73
2017-10-04T10:52:36.765Z,1005.71
2017-10-04T10:53:47.131Z,1005.69
2017-10-04T10:54:57.502Z,1005.67
2017-10-04T10:56:07.876Z,1005.66
2017-10-04T10:57:18.233Z,1005.68
2017-10-04T10:58:28.888Z,1005.68
2017-10-04T10:59:39.276Z,1005.65
2017-10-04T11:00:49.045Z,1005.67
2017-10-04T11:01:59.261Z,1005.63
2017-10-04T11:03:24.688Z,1005.54
2017-10-04T11:04:34.830Z,1005.52
2017-10-04T11:05:45.166Z,1005.51
2017-10-04T11:06:56.107Z,1005.54
2017-10-04T11:08:20.335Z,1005.47
2017-10-04T11:09:30.682Z,1005.51
2017-10-04T11:10:41.031Z,1005.53
2017-10-04T11:11:51.085Z,1005.47
2017-10-04T11:13:01.479Z,1005.42
2017-10-04T11:14:11.519Z,1005.43
2017-10-04T11:15:21.862Z,1005.45
2017-10-04T11:16:31.592Z,1005.38
2017-10-04T11:17:41.928Z,1005.39
2017-10-04T11:18:52.318Z,1005.39
2017-10-04T11:20:02.685Z,1005.39
2017-10-04T11:21:12.709Z,1005.36
2017-10-04T11:22:22.762Z,1005.31
2017-10-04T11:23:33.198Z,1005.27
2017-10-04T11:24:43.560Z,1005.25
2017-10-04T11:25:53.585Z,1005.22
2017-10-04T11:27:03.629Z,1005.13
2017-10-04T11:28:13.658Z,1005.14
2017-10-04T11:29:23.986Z,1005.07
2017-10-04T11:30:34.069Z,1005.05
2017-10-04T11:31:44.097Z,1005.09
2017-10-04T11:32:54.590Z,1005.05
2017-10-04T11:34:05.026Z,1005.03
2017-10-04T11:35:15.359Z,1005.07
2017-10-04T11:36:25.397Z,1004.99
2017-10-04T11:37:35.442Z,1004.99
2017-10-04T11:38:45.797Z,1004.96
2017-10-04T11:39:56.154Z,1004.94
2017-10-04T11:41:06.179Z,1004.88
2017-10-04T11:42:16.613Z,1004.95
2017-10-04T11:43:26.973Z,1004.89
2017-10-04T11:44:37.324Z,1004.9
2017-10-04T11:45:47.692Z,1004.83
2017-10-04T11:46:58.052Z,1004.84
2017-10-04T11:48:08.440Z,1004.87
2017-10-04T11:49:18.823Z,1004.88
2017-10-04T11:50:28.854Z,1004.93
2017-10-04T11:51:39.245Z,1004.94
2017-10-04T11:52:49.583Z,1004.89
2017-10-04T11:53:59.606Z,1004.83
2017-10-04T11:55:09.648Z,1004.76
2017-10-04T11:56:19.994Z,1004.74
2017-10-04T11:57:30.394Z,1004.75
2017-10-04T11:58:40.728Z,1004.77
2017-10-04T11:59:50.748Z,1004.76
2017-10-04T12:01:01.113Z,1004.76
2017-10-04T12:02:11.458Z,1004.85
2017-10-04T12:03:21.494Z,1004.82
2017-10-04T12:04:31.822Z,1004.88
2017-10-04T12:05:42.226Z,1004.82
2017-10-04T12:06:52.590Z,1004.9
2017-10-04T12:08:02.946Z,1004.87
2017-10-04T12:09:12.983Z,1004.81
2017-10-04T12:10:23.346Z,1004.83
2017-10-04T12:11:33.766Z,1004.81
2017-10-04T12:12:44.123Z,1004.8
2017-10-04T12:13:54.921Z,1004.74
2017-10-04T12:15:05.281Z,1004.7
2017-10-04T12:16:15.325Z,1004.68
2017-10-04T12:17:25.723Z,1004.62
2017-10-04T12:18:36.075Z,1004.56
2017-10-04T12:19:46.440Z,1004.5
2017-10-04T12:20:56.779Z,1004.51
2017-10-04T12:23:31.816Z,1004.4
2017-10-04T12:24:42.194Z,1004.42
2017-10-04T12:25:52.575Z,1004.42
2017-10-04T12:27:02.604Z,1004.41
2017-10-04T12:28:12.669Z,1004.35
2017-10-04T12:29:23.022Z,1004.32
2017-10-04T12:30:33.394Z,1004.35
2017-10-04T12:31:43.760Z,1004.35
2017-10-04T12:32:53.800Z,1004.38
2017-10-04T12:34:03.844Z,1004.35
2017-10-04T12:35:14.325Z,1004.36
2017-10-04T12:36:24.665Z,1004.31
2017-10-04T12:37:34.730Z,1004.31
2017-10-04T12:38:44.459Z,1004.29
2017-10-04T12:39:54.854Z,1004.18
2017-10-04T12:41:05.229Z,1004.12
2017-10-04T12:42:15.593Z,1004.09
2017-10-04T12:43:25.960Z,1004.14
2017-10-04T12:44:36.322Z,1003.99
2017-10-04T12:45:46.417Z,1004.09
2017-10-04T12:46:56.779Z,1004.07
2017-10-04T12:48:07.122Z,1004.1
2017-10-04T12:49:17.382Z,1004.12
2017-10-04T12:50:29.478Z,1004.09
2017-10-04T12:51:39.576Z,1004.08
2017-10-04T12:52:49.971Z,1004.08
2017-10-04T12:54:00.336Z,1003.99
2017-10-04T12:55:10.692Z,1003.92
2017-10-04T12:56:21.057Z,1003.85
2017-10-04T12:57:31.431Z,1003.84
2017-10-04T12:58:41.783Z,1003.77
2017-10-04T12:59:52.139Z,1003.69
2017-10-04T13:01:01.859Z,1003.69
2017-10-04T13:02:12.247Z,1003.59
2017-10-04T13:03:22.582Z,1003.62
2017-10-04T13:04:32.938Z,1003.64
2017-10-04T13:05:42.983Z,1003.65
2017-10-04T13:06:53.355Z,1003.56
2017-10-04T13:08:03.696Z,1003.49
2017-10-04T13:09:14.061Z,1003.5
2017-10-04T13:10:24.413Z,1003.48
2017-10-04T13:11:34.762Z,1003.51
2017-10-04T13:12:44.779Z,1003.56
2017-10-04T13:13:55.122Z,1003.51
2017-10-04T13:15:05.205Z,1003.52
2017-10-04T13:16:15.579Z,1003.54
2017-10-04T13:17:25.619Z,1003.53
2017-10-04T13:18:35.653Z,1003.51
2017-10-04T13:19:45.698Z,1003.51
2017-10-04T13:20:56.081Z,1003.54
2017-10-04T13:22:06.426Z,1003.53
2017-10-04T13:23:16.776Z,1003.5
2017-10-04T13:24:27.122Z,1003.46
2017-10-04T13:25:37.148Z,1003.42
2017-10-04T13:26:47.494Z,1003.45
2017-10-04T13:27:57.840Z,1003.4
2017-10-04T13:29:07.884Z,1003.36
2017-10-04T13:30:18.285Z,1003.39
2017-10-04T13:31:28.622Z,1003.39
2017-10-04T13:32:38.980Z,1003.41
2017-10-04T13:33:49.327Z,1003.47
2017-10-04T13:34:59.397Z,1003.47
2017-10-04T13:36:09.755Z,1003.5
2017-10-04T13:37:20.105Z,1003.51
2017-10-04T13:38:30.137Z,1003.49
2017-10-04T13:39:40.164Z,1003.53
2017-10-04T13:40:50.187Z,1003.47
2017-10-04T13:42:00.545Z,1003.52
2017-10-04T13:43:10.893Z,1003.48
2017-10-04T13:44:20.922Z,1003.49
2017-10-04T13:45:30.957Z,1003.46
2017-10-04T13:46:40.981Z,1003.48
2017-10-04T13:47:51.383Z,1003.45
2017-10-04T13:49:01.741Z,1003.49
2017-10-04T13:50:11.765Z,1003.44
2017-10-04T13:51:22.120Z,1003.42
2017-10-04T13:52:32.158Z,1003.42
2017-10-04T13:53:42.511Z,1003.4
2017-10-04T13:54:52.877Z,1003.36
2017-10-04T13:56:03.214Z,1003.33
2017-10-04T13:57:13.536Z,1003.36
2017-10-04T13:58:23.238Z,1003.32
2017-10-04T13:59:33.595Z,1003.3
2017-10-04T14:00:43.314Z,1003.24
2017-10-04T14:01:53.337Z,1003.21
2017-10-04T14:03:03.372Z,1003.13
2017-10-04T14:04:13.707Z,1003.12
2017-10-04T14:05:24.053Z,1003.17
2017-10-04T14:06:34.091Z,1003.19
2017-10-04T14:07:44.110Z,1003.22
2017-10-04T14:08:54.466Z,1003.26
2017-10-04T14:10:04.829Z,1003.21
2017-10-04T14:11:15.192Z,1003.15
2017-10-04T14:12:25.540Z,1003.19
2017-10-04T14:13:35.919Z,1003.08
2017-10-04T14:14:46.334Z,1003.09
2017-10-04T14:15:56.718Z,1003.04
2017-10-04T14:17:06.759Z,1003.03
2017-10-04T14:18:17.118Z,1003.03
2017-10-04T14:19:27.482Z,1003.06
2017-10-04T14:20:37.881Z,1003.04
2017-10-04T14:21:48.256Z,1003.06
2017-10-04T14:22:58.613Z,1003.06
2017-10-04T14:24:08.632Z,1002.97
2017-10-04T14:25:18.672Z,1002.96
2017-10-04T14:26:29.581Z,1002.94
2017-10-04T14:27:39.923Z,1002.95
2017-10-04T14:28:50.288Z,1002.97
2017-10-04T14:30:00.650Z,1002.96
2017-10-04T14:31:11.007Z,1002.87
2017-10-04T14:32:21.083Z,1002.88
2017-10-04T14:33:31.465Z,1002.87
2017-10-04T14:34:41.818Z,1002.86
2017-10-04T14:35:51.546Z,1002.87
2017-10-04T14:37:01.895Z,1002.87
2017-10-04T14:38:12.250Z,1002.89
2017-10-04T14:39:22.268Z,1002.85
2017-10-04T14:40:32.626Z,1002.88
2017-10-04T14:41:42.964Z,1002.85
2017-10-04T14:42:52.981Z,1002.84
2017-10-04T14:44:03.061Z,1002.78
2017-10-04T14:45:13.098Z,1002.76